createdAt,value
2023-04-02T00:00:09.717Z,99670.80
2023-04-02T00:02:46.509Z,99670.55
2023-04-02T00:05:21.230Z,99669.79
2023-04-02T00:07:50.723Z,99667.15
2023-04-02T00:10:28.802Z,99663.90
2023-04-02T00:13:05.275Z,99661.42
2023-04-02T00:15:34.293Z,99660.75
2023-04-02T00:18:02.690Z,99660.96
2023-04-02T00:20:33.974Z,99664.72
2023-04-02T00:23:03.708Z,99662.27
2023-04-02T00:25:36.864Z,99661.56
2023-04-02T00:28:05.561Z,99661.30
2023-04-02T00:30:34.021Z,99656.06
2023-04-02T00:33:03.029Z,99656.92
2023-04-02T00:35:31.410Z,99657.52
2023-04-02T00:37:59.941Z,99654.10
2023-04-02T00:40:28.743Z,99655.84
2023-04-02T00:42:58.324Z,99655.30
2023-04-02T00:45:26.503Z,99649.70
2023-04-02T00:47:55.065Z,99648.58
2023-04-02T00:50:33.412Z,99644.00
2023-04-02T00:53:05.696Z,99640.13
2023-04-02T00:55:39.236Z,99638.06
2023-04-02T00:58:33.873Z,99637.17
2023-04-02T01:01:15.028Z,99636.84
2023-04-02T01:03:44.571Z,99636.63
2023-04-02T01:06:14.523Z,99632.17
2023-04-02T01:08:58.129Z,99631.85
2023-04-02T01:11:50.709Z,99634.85
2023-04-02T01:14:39.192Z,99636.39
2023-04-02T01:17:08.820Z,99636.64
2023-04-02T01:19:46.696Z,99632.79
2023-04-02T01:22:18.397Z,99634.33
2023-04-02T01:24:46.966Z,99632.69
2023-04-02T01:27:23.919Z,99627.00
2023-04-02T01:29:56.933Z,99623.38
2023-04-02T01:32:26.396Z,99620.60
2023-04-02T01:34:54.677Z,99622.75
2023-04-02T01:37:23.483Z,99619.38
2023-04-02T01:40:11.403Z,99622.86
2023-04-02T01:42:49.300Z,99620.90
2023-04-02T01:45:19.681Z,99622.09
2023-04-02T01:47:48.807Z,99622.77
2023-04-02T01:50:20.135Z,99626.81
2023-04-02T01:52:58.548Z,99624.33
2023-04-02T01:55:34.508Z,99624.23
2023-04-02T01:58:04.936Z,99621.23
2023-04-02T02:00:35.047Z,99623.65
2023-04-02T02:03:03.956Z,99620.86
2023-04-02T02:05:33.275Z,99622.27
2023-04-02T02:08:01.792Z,99614.19
2023-04-02T02:10:34.529Z,99612.06
2023-04-02T02:13:03.118Z,99612.74
2023-04-02T02:15:32.043Z,99607.66
2023-04-02T02:18:02.649Z,99604.90
2023-04-02T02:20:30.821Z,99603.95
2023-04-02T02:23:00.452Z,99603.01
2023-04-02T02:25:28.924Z,99607.08
2023-04-02T02:27:57.347Z,99605.73
2023-04-02T02:30:30.813Z,99603.30
2023-04-02T02:32:59.646Z,99599.48
2023-04-02T02:35:31.527Z,99594.42
2023-04-02T02:38:04.562Z,99590.46
2023-04-02T02:40:41.329Z,99586.05
2023-04-02T02:43:10.713Z,99582.38
2023-04-02T02:45:39.244Z,99582.71
2023-04-02T02:48:10.164Z,99579.88
2023-04-02T02:50:38.762Z,99578.00
2023-04-02T02:53:14.266Z,99577.23
2023-04-02T02:55:42.503Z,99576.71
2023-04-02T02:58:19.639Z,99574.77
2023-04-02T03:00:56.709Z,99570.88
2023-04-02T03:03:27.786Z,99568.70
2023-04-02T03:06:17.553Z,99563.98
2023-04-02T03:08:51.372Z,99569.79
2023-04-02T03:11:23.392Z,99574.58
2023-04-02T03:13:52.315Z,99569.89
2023-04-02T03:16:25.479Z,99571.30
2023-04-02T03:19:08.128Z,99568.21
2023-04-02T03:21:39.535Z,99562.30
2023-04-02T03:24:14.298Z,99560.30
2023-04-02T03:26:44.582Z,99556.66
2023-04-02T03:29:19.793Z,99559.80
2023-04-02T03:32:00.466Z,99559.04
2023-04-02T03:34:33.577Z,99557.95
2023-04-02T03:37:10.946Z,99556.80
2023-04-02T03:39:43.981Z,99556.19
2023-04-02T03:42:18.319Z,99552.39
2023-04-02T03:44:51.594Z,99551.70
2023-04-02T03:47:23.997Z,99549.39
2023-04-02T03:50:12.573Z,99549.35
2023-04-02T03:52:42.070Z,99546.79
2023-04-02T03:55:16.093Z,99548.79
2023-04-02T03:57:53.935Z,99551.95
2023-04-02T04:00:29.859Z,99549.14
2023-04-02T04:03:18.647Z,99549.26
2023-04-02T04:06:02.916Z,99552.31
2023-04-02T04:08:42.703Z,99552.23
2023-04-02T04:11:13.695Z,99551.23
2023-04-02T04:13:46.927Z,99554.70
2023-04-02T04:16:20.293Z,99550.62
2023-04-02T04:18:57.301Z,99551.30
2023-04-02T04:21:52.769Z,99552.13
2023-04-02T04:24:24.904Z,99550.91
2023-04-02T04:26:57.095Z,99549.64
2023-04-02T04:29:31.936Z,99546.77
2023-04-02T04:32:11.266Z,99548.09
2023-04-02T04:34:47.043Z,99544.56
2023-04-02T04:37:40.968Z,99539.55
2023-04-02T04:40:12.207Z,99545.04
2023-04-02T04:42:42.219Z,99546.50
2023-04-02T04:45:34.650Z,99544.80
2023-04-02T04:48:16.756Z,99542.77
2023-04-02T04:50:56.277Z,99539.80
2023-04-02T04:53:27.337Z,99544.20
2023-04-02T04:56:03.443Z,99546.47
2023-04-02T04:58:53.249Z,99546.06
2023-04-02T05:01:34.388Z,99544.36
2023-04-02T05:04:22.161Z,99540.70
2023-04-02T05:07:09.591Z,99543.91
2023-04-02T05:09:45.497Z,99537.06
2023-04-02T05:12:18.852Z,99528.82
2023-04-02T05:14:47.914Z,99532.44
2023-04-02T05:17:20.846Z,99532.80
2023-04-02T05:19:56.846Z,99525.91
2023-04-02T05:22:32.050Z,99524.00
2023-04-02T05:25:09.783Z,99521.46
2023-04-02T05:27:45.001Z,99518.84
2023-04-02T05:30:28.740Z,99514.06
2023-04-02T05:33:05.351Z,99513.39
2023-04-02T05:35:38.027Z,99513.45
2023-04-02T05:38:06.944Z,99509.29
2023-04-02T05:40:43.648Z,99504.55
2023-04-02T05:43:14.177Z,99506.48
2023-04-02T05:45:45.060Z,99509.71
2023-04-02T05:48:21.777Z,99505.35
2023-04-02T05:50:54.611Z,99500.23
2023-04-02T05:53:56.518Z,99502.47
2023-04-02T05:56:27.536Z,99500.52
2023-04-02T05:59:00.191Z,99501.24
2023-04-02T06:01:35.511Z,99502.48
2023-04-02T06:04:28.102Z,99504.21
2023-04-02T06:07:04.653Z,99505.52
2023-04-02T06:09:39.558Z,99504.23
2023-04-02T06:12:12.689Z,99504.16
2023-04-02T06:14:43.241Z,99500.55
2023-04-02T06:17:16.769Z,99499.52
2023-04-02T06:19:47.963Z,99499.50
2023-04-02T06:22:19.683Z,99495.66
2023-04-02T06:24:49.817Z,99496.09
2023-04-02T06:27:20.248Z,99494.30
2023-04-02T06:29:53.198Z,99499.33
2023-04-02T06:32:23.310Z,99494.58
2023-04-02T06:34:52.017Z,99494.94
2023-04-02T06:37:25.714Z,99496.12
2023-04-02T06:40:01.657Z,99497.34
2023-04-02T06:42:40.033Z,99497.42
2023-04-02T06:45:32.321Z,99496.83
2023-04-02T06:48:18.278Z,99493.94
2023-04-02T06:51:12.061Z,99497.14
2023-04-02T06:53:43.338Z,99500.04
2023-04-02T06:56:17.550Z,99493.16
2023-04-02T06:58:46.368Z,99501.84
2023-04-02T07:01:16.401Z,99505.30
2023-04-02T07:03:45.291Z,99502.09
2023-04-02T07:06:27.940Z,99502.02
2023-04-02T07:09:01.139Z,99504.95
2023-04-02T07:11:29.650Z,99503.59
2023-04-02T07:14:01.142Z,99499.04
2023-04-02T07:16:30.797Z,99497.29
2023-04-02T07:18:59.490Z,99496.55
2023-04-02T07:21:35.520Z,99495.77
2023-04-02T07:24:03.771Z,99497.19
2023-04-02T07:26:32.211Z,99492.78
2023-04-02T07:29:00.359Z,99491.27
2023-04-02T07:31:29.395Z,99490.23
2023-04-02T07:33:59.709Z,99490.15
2023-04-02T07:36:28.387Z,99486.39
2023-04-02T07:38:56.910Z,99486.65
2023-04-02T07:41:25.037Z,99486.20
2023-04-02T07:43:56.479Z,99483.44
2023-04-02T07:46:26.100Z,99485.36
2023-04-02T07:48:54.512Z,99481.48
2023-04-02T07:51:23.741Z,99486.23
2023-04-02T07:53:56.303Z,99487.92
2023-04-02T07:56:24.780Z,99485.36
2023-04-02T07:58:52.895Z,99483.42
2023-04-02T08:01:24.625Z,99487.02
2023-04-02T08:03:54.777Z,99487.86
2023-04-02T08:06:23.359Z,99488.83
2023-04-02T08:08:51.649Z,99491.35
2023-04-02T08:11:19.968Z,99489.10
2023-04-02T08:13:54.432Z,99490.80
2023-04-02T08:16:24.106Z,99488.67
2023-04-02T08:18:52.474Z,99487.12
2023-04-02T08:21:20.888Z,99487.23
2023-04-02T08:23:49.078Z,99487.73
2023-04-02T08:26:18.737Z,99485.10
2023-04-02T08:28:47.536Z,99482.26
2023-04-02T08:31:17.381Z,99484.74
2023-04-02T08:33:45.763Z,99484.66
2023-04-02T08:36:16.573Z,99487.87
2023-04-02T08:38:45.096Z,99484.10
2023-04-02T08:41:27.758Z,99483.44
2023-04-02T08:44:15.263Z,99485.52
2023-04-02T08:46:48.748Z,99483.48
2023-04-02T08:49:18.117Z,99481.22
2023-04-02T08:51:46.771Z,99483.55
2023-04-02T08:54:14.931Z,99481.30
2023-04-02T08:56:53.210Z,99485.80
2023-04-02T08:59:32.357Z,99485.54
2023-04-02T09:02:12.894Z,99488.80
2023-04-02T09:04:42.023Z,99488.88
2023-04-02T09:07:15.019Z,99489.02
2023-04-02T09:09:43.746Z,99492.09
2023-04-02T09:12:23.853Z,99493.05
2023-04-02T09:14:55.864Z,99488.23
2023-04-02T09:17:24.808Z,99491.84
2023-04-02T09:20:01.862Z,99493.56
2023-04-02T09:22:31.823Z,99495.73
2023-04-02T09:25:04.989Z,99497.14
2023-04-02T09:27:35.850Z,99495.81
2023-04-02T09:30:24.635Z,99496.95
2023-04-02T09:32:56.244Z,99491.57
2023-04-02T09:35:27.045Z,99496.94
2023-04-02T09:38:07.935Z,99496.33
2023-04-02T09:41:05.993Z,99498.80
2023-04-02T09:43:35.755Z,99500.27
2023-04-02T09:46:08.287Z,99504.23
2023-04-02T09:48:42.451Z,99498.66
2023-04-02T09:51:22.764Z,99505.14
2023-04-02T09:53:51.435Z,99505.89
2023-04-02T09:56:23.695Z,99504.91
2023-04-02T09:59:04.312Z,99505.30
2023-04-02T10:01:39.664Z,99510.17
2023-04-02T10:04:27.025Z,99509.46
2023-04-02T10:06:58.175Z,99506.69
2023-04-02T10:09:29.901Z,99506.60
2023-04-02T10:11:58.834Z,99510.52
2023-04-02T10:14:38.151Z,99510.96
2023-04-02T10:17:17.984Z,99509.79
2023-04-02T10:19:56.610Z,99511.38
2023-04-02T10:22:27.613Z,99509.83
2023-04-02T10:24:56.561Z,99509.42
2023-04-02T10:27:26.334Z,99513.34
2023-04-02T10:30:03.108Z,99513.07
2023-04-02T10:32:36.372Z,99513.77
2023-04-02T10:35:07.580Z,99514.80
2023-04-02T10:37:49.605Z,99515.89
2023-04-02T10:40:37.036Z,99516.13
2023-04-02T10:43:20.366Z,99514.77
2023-04-02T10:45:52.067Z,99512.34
2023-04-02T10:48:23.403Z,99509.90
2023-04-02T10:50:52.365Z,99505.83
2023-04-02T10:53:21.709Z,99509.55
2023-04-02T10:55:53.536Z,99507.06
2023-04-02T10:58:23.767Z,99507.59
2023-04-02T11:01:13.685Z,99511.86
2023-04-02T11:03:50.249Z,99516.89
2023-04-02T11:06:24.738Z,99517.79
2023-04-02T11:08:54.524Z,99519.63
2023-04-02T11:11:27.758Z,99523.09
2023-04-02T11:14:03.983Z,99527.39
2023-04-02T11:16:32.196Z,99531.13
2023-04-02T11:19:16.049Z,99536.23
2023-04-02T11:21:59.720Z,99538.06
2023-04-02T11:24:30.318Z,99537.92
2023-04-02T11:27:06.633Z,99540.08
2023-04-02T11:29:35.553Z,99540.38
2023-04-02T11:32:27.664Z,99543.13
2023-04-02T11:35:06.426Z,99538.14
2023-04-02T11:37:39.466Z,99539.52
2023-04-02T11:40:11.411Z,99540.52
2023-04-02T11:42:46.293Z,99543.15
2023-04-02T11:45:24.428Z,99542.09
2023-04-02T11:48:08.576Z,99540.30
2023-04-02T11:50:38.276Z,99542.08
2023-04-02T11:53:13.034Z,99538.00
2023-04-02T11:55:42.485Z,99539.48
2023-04-02T11:58:24.836Z,99540.90
2023-04-02T12:00:55.355Z,99542.02
2023-04-02T12:03:28.527Z,99543.78
2023-04-02T12:06:06.476Z,99547.86
2023-04-02T12:08:47.193Z,99548.87
2023-04-02T12:11:33.109Z,99556.45
2023-04-02T12:14:01.589Z,99556.19
2023-04-02T12:16:33.503Z,99557.61
2023-04-02T12:19:08.281Z,99555.46
2023-04-02T12:21:36.721Z,99555.97
2023-04-02T12:24:05.165Z,99552.97
2023-04-02T12:26:37.714Z,99556.17
2023-04-02T12:29:21.505Z,99553.64
2023-04-02T12:31:49.878Z,99551.30
2023-04-02T12:34:21.761Z,99548.96
2023-04-02T12:36:56.334Z,99548.85
2023-04-02T12:39:27.408Z,99545.41
2023-04-02T12:41:57.690Z,99548.29
2023-04-02T12:44:27.205Z,99549.61
2023-04-02T12:46:55.424Z,99555.34
2023-04-02T12:49:37.105Z,99557.59
2023-04-02T12:52:09.537Z,99557.57
2023-04-02T12:54:44.056Z,99561.13
2023-04-02T12:57:23.219Z,99564.98
2023-04-02T12:59:52.656Z,99568.24
2023-04-02T13:02:25.147Z,99571.55
2023-04-02T13:04:54.440Z,99575.42
2023-04-02T13:07:23.559Z,99578.16
2023-04-02T13:09:53.151Z,99575.83
2023-04-02T13:12:35.129Z,99576.19
2023-04-02T13:15:07.971Z,99576.14
2023-04-02T13:17:48.071Z,99572.50
2023-04-02T13:20:29.195Z,99576.09
2023-04-02T13:22:57.854Z,99578.97
2023-04-02T13:25:32.683Z,99577.38
2023-04-02T13:28:01.822Z,99575.71
2023-04-02T13:30:36.258Z,99574.04
2023-04-02T13:33:10.583Z,99576.73
2023-04-02T13:35:38.805Z,99576.47
2023-04-02T13:38:07.302Z,99578.21
2023-04-02T13:40:36.980Z,99581.13
2023-04-02T13:43:07.477Z,99576.13
2023-04-02T13:45:39.131Z,99576.92
2023-04-02T13:48:09.529Z,99579.71
2023-04-02T13:50:39.461Z,99585.89
2023-04-02T13:53:10.464Z,99591.08
2023-04-02T13:55:40.814Z,99593.62
2023-04-02T13:58:09.417Z,99595.72
2023-04-02T14:00:41.297Z,99589.92
2023-04-02T14:03:23.960Z,99592.15
2023-04-02T14:05:52.266Z,99591.84
2023-04-02T14:08:20.506Z,99594.48
2023-04-02T14:10:58.647Z,99593.72
2023-04-02T14:13:36.185Z,99594.35
2023-04-02T14:16:07.294Z,99590.64
2023-04-02T14:18:54.869Z,99594.45
2023-04-02T14:21:32.704Z,99594.11
2023-04-02T14:24:15.097Z,99594.40
2023-04-02T14:26:50.646Z,99597.48
2023-04-02T14:29:22.775Z,99598.11
2023-04-02T14:32:03.178Z,99595.45
2023-04-02T14:34:35.768Z,99597.14
2023-04-02T14:37:22.285Z,99603.27
2023-04-02T14:40:06.689Z,99602.60
2023-04-02T14:42:36.739Z,99607.30
2023-04-02T14:45:11.094Z,99609.20
2023-04-02T14:47:53.661Z,99619.94
2023-04-02T14:50:28.160Z,99623.94
2023-04-02T14:52:57.597Z,99627.84
2023-04-02T14:55:36.264Z,99630.77
2023-04-02T14:58:05.708Z,99638.32
2023-04-02T15:00:36.466Z,99641.18
2023-04-02T15:03:35.875Z,99645.73
2023-04-02T15:06:08.729Z,99647.35
2023-04-02T15:08:45.664Z,99647.77
2023-04-02T15:11:19.428Z,99650.33
2023-04-02T15:13:56.814Z,99653.59
2023-04-02T15:16:27.797Z,99660.94
2023-04-02T15:18:56.430Z,99660.48
2023-04-02T15:21:29.720Z,99665.54
2023-04-02T15:24:17.015Z,99664.37
2023-04-02T15:26:48.479Z,99673.20
2023-04-02T15:29:28.380Z,99677.09
2023-04-02T15:32:03.374Z,99678.34
2023-04-02T15:34:37.758Z,99685.04
2023-04-02T15:37:35.598Z,99690.22
2023-04-02T15:40:03.881Z,99696.06
2023-04-02T15:42:39.368Z,99692.52
2023-04-02T15:45:07.845Z,99691.58
2023-04-02T15:47:40.110Z,99691.13
2023-04-02T15:50:14.329Z,99693.98
2023-04-02T15:52:45.500Z,99695.45
2023-04-02T15:55:13.603Z,99696.08
2023-04-02T15:58:00.051Z,99702.06
2023-04-02T16:00:31.305Z,99704.15
2023-04-02T16:03:32.817Z,99711.30
2023-04-02T16:06:10.844Z,99711.70
2023-04-02T16:08:39.992Z,99714.66
2023-04-02T16:11:12.140Z,99713.16
2023-04-02T16:13:44.037Z,99712.88
2023-04-02T16:16:17.546Z,99717.15
2023-04-02T16:18:55.479Z,99718.91
2023-04-02T16:21:24.494Z,99719.01
2023-04-02T16:23:52.908Z,99719.52
2023-04-02T16:26:53.939Z,99722.55
2023-04-02T16:29:53.506Z,99725.63
2023-04-02T16:32:26.810Z,99729.80
2023-04-02T16:34:57.646Z,99733.69
2023-04-02T16:37:41.684Z,99733.59
2023-04-02T16:40:19.076Z,99738.80
2023-04-02T16:42:54.338Z,99739.45
2023-04-02T16:45:34.979Z,99746.06
2023-04-02T16:48:07.124Z,99751.14
2023-04-02T16:50:41.241Z,99756.83
2023-04-02T16:53:22.468Z,99758.80
2023-04-02T16:56:05.966Z,99759.45
2023-04-02T16:58:38.119Z,99766.29
2023-04-02T17:01:08.690Z,99766.18
2023-04-02T17:03:56.239Z,99773.38
2023-04-02T17:06:33.395Z,99775.53
2023-04-02T17:09:03.846Z,99781.77
2023-04-02T17:11:52.445Z,99776.94
2023-04-02T17:14:20.942Z,99779.20
2023-04-02T17:16:50.726Z,99774.27
2023-04-02T17:19:20.929Z,99773.88
2023-04-02T17:21:50.228Z,99772.79
2023-04-02T17:24:24.603Z,99770.33
2023-04-02T17:27:00.930Z,99773.94
2023-04-02T17:29:36.361Z,99776.63
2023-04-02T17:32:05.492Z,99775.53
2023-04-02T17:34:33.871Z,99783.61
2023-04-02T17:37:11.231Z,99784.95
2023-04-02T17:39:43.218Z,99786.52
2023-04-02T17:42:30.175Z,99790.13
2023-04-02T17:45:03.350Z,99793.03
2023-04-02T17:47:31.734Z,99789.98
2023-04-02T17:50:12.307Z,99790.98
2023-04-02T17:52:44.613Z,99788.07
2023-04-02T17:55:16.385Z,99793.28
2023-04-02T17:58:05.384Z,99800.09
2023-04-02T18:00:49.195Z,99798.95
2023-04-02T18:03:18.592Z,99800.58
2023-04-02T18:06:00.250Z,99804.75
2023-04-02T18:08:36.264Z,99810.39
2023-04-02T18:11:04.499Z,99812.29
2023-04-02T18:13:42.132Z,99810.83
2023-04-02T18:16:10.850Z,99820.57
2023-04-02T18:18:57.688Z,99822.98
2023-04-02T18:21:44.920Z,99825.57
2023-04-02T18:24:19.750Z,99831.59
2023-04-02T18:26:50.766Z,99832.23
2023-04-02T18:29:49.044Z,99835.88
2023-04-02T18:32:20.479Z,99834.90
2023-04-02T18:35:08.176Z,99837.18
2023-04-02T18:37:39.972Z,99838.63
2023-04-02T18:40:08.195Z,99838.04
2023-04-02T18:42:43.163Z,99840.05
2023-04-02T18:45:17.208Z,99839.53
2023-04-02T18:47:45.812Z,99833.59
2023-04-02T18:50:16.059Z,99838.91
2023-04-02T18:52:45.114Z,99838.70
2023-04-02T18:55:15.020Z,99841.98
2023-04-02T18:57:43.994Z,99843.73
2023-04-02T19:00:16.181Z,99846.13
2023-04-02T19:02:49.494Z,99848.55
2023-04-02T19:05:20.771Z,99850.86
2023-04-02T19:07:52.711Z,99853.23
2023-04-02T19:10:30.216Z,99856.38
2023-04-02T19:12:59.702Z,99858.56
2023-04-02T19:15:30.508Z,99861.34
2023-04-02T19:18:04.662Z,99860.59
2023-04-02T19:20:41.702Z,99858.01
2023-04-02T19:23:26.660Z,99860.80
2023-04-02T19:25:57.996Z,99863.84
2023-04-02T19:28:33.121Z,99867.60
2023-04-02T19:31:09.305Z,99872.18
2023-04-02T19:33:41.401Z,99870.02
2023-04-02T19:36:28.536Z,99871.41
2023-04-02T19:39:16.079Z,99874.22
2023-04-02T19:41:48.789Z,99881.42
2023-04-02T19:44:17.239Z,99888.27
2023-04-02T19:46:45.631Z,99888.23
2023-04-02T19:49:14.674Z,99884.84
2023-04-02T19:51:43.741Z,99887.73
2023-04-02T19:54:12.982Z,99891.79
2023-04-02T19:56:42.682Z,99885.30
2023-04-02T19:59:17.938Z,99884.21
2023-04-02T20:01:47.293Z,99888.42
2023-04-02T20:04:15.666Z,99882.17
2023-04-02T20:06:43.949Z,99882.47
2023-04-02T20:09:13.162Z,99885.05
2023-04-02T20:11:41.302Z,99886.52
2023-04-02T20:14:13.330Z,99886.05
2023-04-02T20:16:45.715Z,99891.98
2023-04-02T20:19:14.088Z,99887.70
2023-04-02T20:21:45.773Z,99891.48
2023-04-02T20:24:14.705Z,99890.05
2023-04-02T20:26:43.029Z,99892.45
2023-04-02T20:29:14.394Z,99894.01
2023-04-02T20:31:43.088Z,99895.34
2023-04-02T20:34:11.497Z,99896.43
2023-04-02T20:36:40.192Z,99894.43
2023-04-02T20:39:09.437Z,99896.52
2023-04-02T20:41:38.075Z,99902.65
2023-04-02T20:44:09.911Z,99897.92
2023-04-02T20:46:39.836Z,99900.17
2023-04-02T20:49:08.246Z,99902.27
2023-04-02T20:51:38.342Z,99903.33
2023-04-02T20:54:06.946Z,99908.48
2023-04-02T20:56:37.709Z,99905.13
2023-04-02T20:59:06.276Z,99904.21
2023-04-02T21:01:34.611Z,99911.48
2023-04-02T21:04:03.636Z,99904.31
2023-04-02T21:06:32.866Z,99910.22
2023-04-02T21:09:08.163Z,99910.40
2023-04-02T21:11:36.878Z,99912.02
2023-04-02T21:14:05.718Z,99913.20
2023-04-02T21:16:34.516Z,99914.96
2023-04-02T21:19:04.351Z,99916.30
2023-04-02T21:21:32.579Z,99921.03
2023-04-02T21:24:05.536Z,99922.26
2023-04-02T21:26:36.052Z,99921.30
2023-04-02T21:29:05.538Z,99928.48
2023-04-02T21:31:34.782Z,99919.97
2023-04-02T21:34:03.674Z,99926.31
2023-04-02T21:36:34.005Z,99933.73
2023-04-02T21:39:04.360Z,99935.54
2023-04-02T21:41:33.315Z,99936.05
2023-04-02T21:44:03.164Z,99934.30
2023-04-02T21:46:33.677Z,99937.27
2023-04-02T21:49:01.979Z,99934.91
2023-04-02T21:51:31.105Z,99932.02
2023-04-02T21:54:01.402Z,99932.05
2023-04-02T21:56:33.279Z,99929.42
2023-04-02T21:59:04.382Z,99938.52
2023-04-02T22:01:33.578Z,99942.01
2023-04-02T22:04:02.455Z,99939.56
2023-04-02T22:06:31.754Z,99942.01
2023-04-02T22:09:00.999Z,99946.08
2023-04-02T22:11:35.899Z,99936.09
2023-04-02T22:14:04.228Z,99939.55
2023-04-02T22:16:33.239Z,99944.27
2023-04-02T22:19:05.989Z,99939.23
2023-04-02T22:21:35.030Z,99941.45
2023-04-02T22:24:06.429Z,99944.59
2023-04-02T22:26:36.565Z,99943.62
2023-04-02T22:29:05.186Z,99948.95
2023-04-02T22:31:35.928Z,99951.30
2023-04-02T22:34:04.979Z,99955.48
2023-04-02T22:36:33.393Z,99955.27
2023-04-02T22:39:02.060Z,99953.08
2023-04-02T22:41:32.162Z,99959.09
2023-04-02T22:44:00.585Z,99954.34
2023-04-02T22:46:29.258Z,99962.06
2023-04-02T22:48:57.722Z,99965.28
2023-04-02T22:51:27.824Z,99968.27
2023-04-02T22:53:56.224Z,99970.23
2023-04-02T22:56:26.285Z,99965.06
2023-04-02T22:58:54.403Z,99962.24
2023-04-02T23:01:24.014Z,99966.74
2023-04-02T23:03:54.216Z,99966.02
2023-04-02T23:06:22.675Z,99965.87
2023-04-02T23:08:51.546Z,99968.31
2023-04-02T23:11:23.826Z,99971.34
2023-04-02T23:13:52.744Z,99973.61
2023-04-02T23:16:21.503Z,99973.38
2023-04-02T23:18:49.951Z,99971.23
2023-04-02T23:21:18.507Z,99977.19
2023-04-02T23:23:46.697Z,99975.13
2023-04-02T23:26:16.281Z,99976.49
2023-04-02T23:28:44.490Z,99980.08
2023-04-02T23:31:14.145Z,99992.91
2023-04-02T23:33:42.708Z,99993.72
2023-04-02T23:36:12.786Z,99993.45
2023-04-02T23:38:45.186Z,99993.52
2023-04-02T23:41:16.498Z,99990.29
2023-04-02T23:43:44.655Z,99996.95
2023-04-02T23:46:12.925Z,99998.89
2023-04-02T23:48:41.385Z,99993.33
2023-04-02T23:51:10.279Z,100007.76
2023-04-02T23:53:38.727Z,99995.89
2023-04-02T23:56:07.009Z,99997.36
2023-04-02T23:58:35.584Z,99998.59
